Grand Prairie, TX

6:17 AM CDT on June 24, 2017 (GMT -0500)
North Grand Prairie | | Change Station
Active Advisory: Flood Warning Active Notice: Public Information Statement

Elev 513 ft 32.77 °N, 97.02 °W | Updated 9 seconds ago

Overcast
Overcast
71.4 °F
Feels Like 71.4 °F
N
0.0
Wind Variable Wind from SW

Today
High -- | Low -- °F
--% Chance of Precip.
Yesterday
High -- | Low -- °F
Precip. -- in
Pressure 30.01 in
Visibility 10.0 miles
Clouds Scattered Clouds 1000 ft
Scattered Clouds 1400 ft
Scattered Clouds 2400 ft
Dew Point 71 °F
Humidity 98%
Rainfall 1.68 in
Snow Depth Not available.
6:21 AM 8:39 PM
New Moon, 0% visible
METAR KGPM 241055Z AUTO 00000KT 10SM SCT010 SCT014 SCT024 22/22 A3001 RMK AO2 P0002 T02200220
Pressure 30.01 in
Visibility 10.0 miles
Clouds Scattered Clouds 1000 ft
Scattered Clouds 1400 ft
Scattered Clouds 2400 ft
Dew Point 71 °F
Humidity 98%
Rainfall 1.68 in
Snow Depth Not available.
6:21 AM 8:39 PM
New Moon, 0% visible
METAR KGPM 241055Z AUTO 00000KT 10SM SCT010 SCT014 SCT024 22/22 A3001 RMK AO2 P0002 T02200220

Get Your Daily Forecast Email!

Thanks for signing up!

Be on the lookout for a verification email in your inbox.

You'll start receiving severe weather alerts in your inbox..

×

10-Day Weather Forecast

Almanac

Astronomy

Jun. 24, 2017 Rise Set
Actual Time
Civil Twilight
Nautical Twilight
Astronomical Twilight
Moon
Length of Visible Light
Length of Day
Tomorrow will be .
, % of the Moon is Illuminated

Today's Extremes

State Highs State Lows

Community

WunderPhotos

Category 6

Welcome to Category 6. This is the collective home for Weather Underground's featured writeups by Dr. Jeff Masters (right), Bob Henson (left), Chris Burt, and other regular contributors.

Nearby

Air Quality

  Air Quality AQ Index Pollutant
Not available.

Snow Depth

Station Depth Elevation

Earthquake Activity

City Distance Mag. Time & Date
Minimum magnitude displayed is 2.5.

Coastal Water Temperatures

Place Temperature

Stations

Nearby Weather Stations

Station Location Temp. Windchill Dew Point Humidity Wind Precip. Elev Updated Type
                   

Watches & Warnings

Flood Warning
Issued: 1:17 AM CDT Jun. 24, 2017 – National Weather Service

The National Weather Service in Fort Worth has issued a

* Flood Warning for
the White Rock creek near White Rock creek at Greenville Ave.
* Until this afternoon... or until the warning is cancelled.
* At 1215 am Saturday the stage was 70.44 feet.
* Flood stage is 84.0 feet.
* Minor flooding is forecast.
* Forecast... the river should rise above flood stage by Saturday
overnight and continue to rise to a crest near 86 feet by Saturday
overnight. The river should fall below flood stage by Saturday
overnight.


Lat... Lon 3293 9682 3295 9676 3285 9669 3280 9669
      3279 9677 3285 9677